createdAt,value
2022-08-07T00:00:36.456Z,22.98
2022-08-07T00:03:08.580Z,23.06
2022-08-07T00:05:36.297Z,23.08
2022-08-07T00:08:04.865Z,23.04
2022-08-07T00:10:32.144Z,23.04
2022-08-07T00:13:09.587Z,23.11
2022-08-07T00:15:46.780Z,23.11
2022-08-07T00:18:28.466Z,23.10
2022-08-07T00:21:01.838Z,23.05
2022-08-07T00:23:31.801Z,23.15
2022-08-07T00:26:13.064Z,23.08
2022-08-07T00:28:55.338Z,23.05
2022-08-07T00:31:22.355Z,23.01
2022-08-07T00:33:48.939Z,23.01
2022-08-07T00:36:16.955Z,22.99
2022-08-07T00:38:43.825Z,23.00
2022-08-07T00:41:14.914Z,23.08
2022-08-07T00:44:01.847Z,23.19
2022-08-07T00:46:30.228Z,23.22
2022-08-07T00:49:02.142Z,23.25
2022-08-07T00:51:56.938Z,23.25
2022-08-07T00:54:19.711Z,23.17
2022-08-07T00:56:49.555Z,23.16
2022-08-07T00:59:17.491Z,23.24
2022-08-07T01:01:48.528Z,23.22
2022-08-07T01:04:24.703Z,23.20
2022-08-07T01:06:51.568Z,23.16
2022-08-07T01:10:03.869Z,23.25
2022-08-07T01:12:28.304Z,23.25
2022-08-07T01:15:01.197Z,23.23
2022-08-07T01:17:31.020Z,23.24
2022-08-07T01:20:04.852Z,23.22
2022-08-07T01:22:33.298Z,23.17
2022-08-07T01:25:00.926Z,23.20
2022-08-07T01:27:32.272Z,23.29
2022-08-07T01:30:00.482Z,23.20
2022-08-07T01:32:28.199Z,23.15
2022-08-07T01:34:56.207Z,23.10
2022-08-07T01:37:24.700Z,23.21
2022-08-07T01:39:52.272Z,23.20
2022-08-07T01:42:40.074Z,23.20
2022-08-07T01:45:15.926Z,23.25
2022-08-07T01:48:29.930Z,23.28
2022-08-07T01:50:32.804Z,23.31
2022-08-07T01:53:08.909Z,23.26
2022-08-07T01:55:44.672Z,23.26
2022-08-07T01:58:29.706Z,23.26
2022-08-07T02:01:09.838Z,23.33
2022-08-07T02:03:50.507Z,23.37
2022-08-07T02:06:31.558Z,23.33
2022-08-07T02:09:04.227Z,23.20
2022-08-07T02:12:02.889Z,23.28
2022-08-07T02:14:40.357Z,23.45
2022-08-07T02:17:09.494Z,23.32
2022-08-07T02:20:05.551Z,23.28
2022-08-07T02:22:30.649Z,23.17
2022-08-07T02:24:58.201Z,23.32
2022-08-07T02:27:34.354Z,23.40
2022-08-07T02:30:07.334Z,23.41
2022-08-07T02:32:39.617Z,23.36
2022-08-07T02:36:30.134Z,23.46
2022-08-07T02:38:14.715Z,23.30
2022-08-07T02:40:46.453Z,23.43
2022-08-07T02:43:15.509Z,23.43
2022-08-07T02:45:58.102Z,23.41
2022-08-07T02:48:26.251Z,23.43
2022-08-07T02:50:56.903Z,23.41
2022-08-07T02:53:30.858Z,23.44
2022-08-07T02:56:06.502Z,23.37
2022-08-07T02:58:47.471Z,23.44
2022-08-07T03:01:19.156Z,23.37
2022-08-07T03:04:06.888Z,23.39
2022-08-07T03:06:35.084Z,23.37
2022-08-07T03:09:03.677Z,23.34
2022-08-07T03:11:32.735Z,23.25
2022-08-07T03:14:01.608Z,23.22
2022-08-07T03:16:30.491Z,22.99
2022-08-07T03:18:59.301Z,23.18
2022-08-07T03:21:27.536Z,23.20
2022-08-07T03:24:19.695Z,23.13
2022-08-07T03:26:53.588Z,23.28
2022-08-07T03:29:28.214Z,23.19
2022-08-07T03:31:56.110Z,23.08
2022-08-07T03:34:27.276Z,23.18
2022-08-07T03:36:57.371Z,23.07
2022-08-07T03:39:59.655Z,23.05
2022-08-07T03:42:14.270Z,23.06
2022-08-07T03:44:41.686Z,23.10
2022-08-07T03:47:11.242Z,23.12
2022-08-07T03:49:47.764Z,23.05
2022-08-07T03:52:22.715Z,23.16
2022-08-07T03:55:06.771Z,23.22
2022-08-07T03:58:35.501Z,23.13
2022-08-07T04:00:30.560Z,23.16
2022-08-07T04:03:04.020Z,23.08
2022-08-07T04:05:40.332Z,23.08
2022-08-07T04:08:13.190Z,23.09
2022-08-07T04:10:54.276Z,23.10
2022-08-07T04:14:10.160Z,23.32
2022-08-07T04:16:19.753Z,23.28
2022-08-07T04:19:01.804Z,23.35
2022-08-07T04:21:33.316Z,23.36
2022-08-07T04:24:07.297Z,23.40
2022-08-07T04:26:34.828Z,23.27
2022-08-07T04:29:02.974Z,23.34
2022-08-07T04:31:38.933Z,23.33
2022-08-07T04:34:24.100Z,23.33
2022-08-07T04:36:54.779Z,23.43
2022-08-07T04:39:25.873Z,23.44
2022-08-07T04:41:52.756Z,23.45
2022-08-07T04:44:20.839Z,23.46
2022-08-07T04:47:09.585Z,23.54
2022-08-07T04:49:57.372Z,23.56
2022-08-07T04:53:09.180Z,23.66
2022-08-07T04:58:12.230Z,23.65
2022-08-07T05:00:11.270Z,23.51
2022-08-07T05:02:16.894Z,23.44
2022-08-07T05:05:52.014Z,23.36
2022-08-07T05:08:04.711Z,23.24
2022-08-07T05:10:37.474Z,23.15
2022-08-07T05:14:55.449Z,23.22
2022-08-07T05:16:04.499Z,23.15
2022-08-07T05:18:35.547Z,23.21
2022-08-07T05:21:04.723Z,23.20
2022-08-07T05:23:57.256Z,23.06
2022-08-07T05:26:27.510Z,23.07
2022-08-07T05:28:59.551Z,23.09
2022-08-07T05:31:38.616Z,23.22
2022-08-07T05:34:11.003Z,23.08
2022-08-07T05:36:39.770Z,23.21
2022-08-07T05:39:08.959Z,23.39
2022-08-07T05:42:01.750Z,23.66
2022-08-07T05:44:31.257Z,23.97
2022-08-07T05:47:01.227Z,24.05
2022-08-07T05:49:40.639Z,23.92
2022-08-07T05:52:11.456Z,23.81
2022-08-07T05:54:44.407Z,23.95
2022-08-07T05:57:21.298Z,24.15
2022-08-07T05:59:57.839Z,24.08
2022-08-07T06:02:29.707Z,24.11
2022-08-07T06:05:03.621Z,24.24
2022-08-07T06:08:14.818Z,24.02
2022-08-07T06:10:18.534Z,23.97
2022-08-07T06:12:46.139Z,23.97
2022-08-07T06:15:16.245Z,23.43
2022-08-07T06:17:53.620Z,23.31
2022-08-07T06:20:49.862Z,23.27
2022-08-07T06:23:46.765Z,23.10
2022-08-07T06:26:00.423Z,23.03
2022-08-07T06:28:28.282Z,23.29
2022-08-07T06:30:56.384Z,23.35
2022-08-07T06:33:25.519Z,23.28
2022-08-07T06:36:11.794Z,23.24
2022-08-07T06:38:39.215Z,23.42
2022-08-07T06:41:59.177Z,23.52
2022-08-07T06:44:13.228Z,23.74
2022-08-07T06:46:43.131Z,23.56
2022-08-07T06:49:20.563Z,23.66
2022-08-07T06:51:50.023Z,23.44
2022-08-07T06:55:31.763Z,23.39
2022-08-07T06:57:08.247Z,23.55
2022-08-07T07:00:13.059Z,23.81
2022-08-07T07:02:53.320Z,23.99
2022-08-07T07:06:03.413Z,24.16
2022-08-07T07:08:07.099Z,24.63
2022-08-07T07:10:36.755Z,25.15
2022-08-07T07:13:55.742Z,25.50
2022-08-07T07:16:09.666Z,25.79
2022-08-07T07:18:47.990Z,25.73
2022-08-07T07:21:27.278Z,25.20
2022-08-07T07:24:12.587Z,25.14
2022-08-07T07:26:41.108Z,24.72
2022-08-07T07:29:40.185Z,24.55
2022-08-07T07:32:12.791Z,24.80
2022-08-07T07:34:48.665Z,24.62
2022-08-07T07:37:44.277Z,24.77
2022-08-07T07:40:10.375Z,24.50
2022-08-07T07:42:50.916Z,25.17
2022-08-07T07:46:37.327Z,25.45
2022-08-07T07:48:35.072Z,25.55
2022-08-07T07:51:02.779Z,26.05
2022-08-07T07:53:51.873Z,26.31
2022-08-07T07:56:30.679Z,26.57
2022-08-07T07:59:02.047Z,26.04
2022-08-07T08:02:03.465Z,26.30
2022-08-07T08:04:20.143Z,26.48
2022-08-07T08:06:54.055Z,26.63
2022-08-07T08:09:24.295Z,26.46
2022-08-07T08:12:02.733Z,26.34
2022-08-07T08:14:36.406Z,26.47
2022-08-07T08:18:36.984Z,27.12
2022-08-07T08:20:18.779Z,28.42
2022-08-07T08:23:06.467Z,29.97
2022-08-07T08:25:56.777Z,29.90
2022-08-07T08:28:38.540Z,29.99
2022-08-07T08:31:14.647Z,30.07
2022-08-07T08:33:43.844Z,30.12
2022-08-07T08:36:18.534Z,30.23
2022-08-07T08:38:56.228Z,30.36
2022-08-07T08:41:58.220Z,30.05
2022-08-07T08:44:44.765Z,29.84
2022-08-07T08:48:16.791Z,29.99
2022-08-07T08:50:52.379Z,30.53
2022-08-07T08:53:47.144Z,30.73
2022-08-07T08:56:24.650Z,30.87
2022-08-07T08:59:24.679Z,32.19
2022-08-07T09:02:04.665Z,35.07
2022-08-07T09:04:38.342Z,35.44
2022-08-07T09:07:46.195Z,36.49
2022-08-07T09:10:32.447Z,38.92
2022-08-07T09:13:11.256Z,40.07
2022-08-07T09:16:24.459Z,37.88
2022-08-07T09:19:07.000Z,38.61
2022-08-07T09:22:10.176Z,38.28
2022-08-07T09:24:59.687Z,37.23
2022-08-07T09:27:59.796Z,38.71
2022-08-07T09:30:54.741Z,40.80
2022-08-07T09:33:52.746Z,42.68
2022-08-07T09:36:35.390Z,44.06
2022-08-07T09:39:53.093Z,44.89
2022-08-07T09:42:07.906Z,43.38
2022-08-07T09:47:27.737Z,40.94
2022-08-07T09:48:21.507Z,38.28
2022-08-07T09:52:15.482Z,37.42
2022-08-07T09:54:22.897Z,36.76
2022-08-07T09:57:12.921Z,36.53
2022-08-07T10:00:03.739Z,36.32
2022-08-07T10:02:33.832Z,35.24
2022-08-07T10:05:59.875Z,35.40
2022-08-07T10:08:55.438Z,35.71
2022-08-07T10:12:02.326Z,35.42
2022-08-07T10:14:55.315Z,35.52
2022-08-07T10:18:01.456Z,36.23
2022-08-07T10:20:50.381Z,37.10
2022-08-07T10:24:05.439Z,38.35
2022-08-07T10:26:27.663Z,36.92
2022-08-07T10:29:15.561Z,36.87
2022-08-07T10:31:58.030Z,37.52
2022-08-07T10:34:48.660Z,38.24
2022-08-07T10:37:59.934Z,38.98
2022-08-07T10:40:30.397Z,39.36
2022-08-07T10:43:34.429Z,39.06
2022-08-07T10:46:13.058Z,39.36
2022-08-07T10:48:59.766Z,39.96
2022-08-07T10:52:12.673Z,38.87
2022-08-07T10:54:53.533Z,37.38
2022-08-07T10:57:46.240Z,37.44
2022-08-07T11:00:36.415Z,37.96
2022-08-07T11:03:51.329Z,38.48
2022-08-07T11:06:26.947Z,38.39
2022-08-07T11:09:11.035Z,37.64
2022-08-07T11:11:51.801Z,36.88
2022-08-07T11:14:45.534Z,36.81
2022-08-07T11:17:43.400Z,36.17
2022-08-07T11:20:24.602Z,35.64
2022-08-07T11:23:26.185Z,35.32
2022-08-07T11:26:38.595Z,35.36
2022-08-07T11:29:42.004Z,35.51
2022-08-07T11:32:40.421Z,35.33
2022-08-07T11:35:26.783Z,34.48
2022-08-07T11:38:21.450Z,33.82
2022-08-07T11:40:59.480Z,33.59
2022-08-07T11:43:41.708Z,33.83
2022-08-07T11:46:41.981Z,34.42
2022-08-07T11:50:18.632Z,34.70
2022-08-07T11:52:37.700Z,34.11
2022-08-07T11:56:25.937Z,33.80
2022-08-07T11:58:49.683Z,32.79
2022-08-07T12:01:59.183Z,32.26
2022-08-07T12:04:40.132Z,32.30
2022-08-07T12:07:53.391Z,32.30
2022-08-07T12:10:34.970Z,32.74
2022-08-07T12:13:36.656Z,33.34
2022-08-07T12:16:10.852Z,33.44
2022-08-07T12:19:05.233Z,33.02
2022-08-07T12:22:37.547Z,33.21
2022-08-07T12:26:21.371Z,33.81
2022-08-07T12:28:31.329Z,34.26
2022-08-07T12:31:05.436Z,34.16
2022-08-07T12:34:00.788Z,33.92
2022-08-07T12:36:33.190Z,33.99
2022-08-07T12:39:41.176Z,33.88
2022-08-07T12:41:53.804Z,34.01
2022-08-07T12:44:21.710Z,34.14
2022-08-07T12:47:21.902Z,34.16
2022-08-07T12:50:39.015Z,34.11
2022-08-07T12:53:22.418Z,33.75
2022-08-07T12:56:03.933Z,33.56
2022-08-07T12:58:39.247Z,33.40
2022-08-07T13:01:17.192Z,33.33
2022-08-07T13:04:13.631Z,33.37
2022-08-07T13:08:14.096Z,33.41
2022-08-07T13:10:37.921Z,33.55
2022-08-07T13:13:48.647Z,33.43
2022-08-07T13:16:16.951Z,33.49
2022-08-07T13:19:34.870Z,33.88
2022-08-07T13:22:26.901Z,34.29
2022-08-07T13:25:02.379Z,33.82
2022-08-07T13:28:11.299Z,34.02
2022-08-07T13:30:43.466Z,34.09
2022-08-07T13:34:31.278Z,34.07
2022-08-07T13:36:49.126Z,34.05
2022-08-07T13:40:35.414Z,33.90
2022-08-07T13:42:41.120Z,33.60
2022-08-07T13:46:06.905Z,33.45
2022-08-07T13:48:07.789Z,33.28
2022-08-07T13:50:44.731Z,33.07
2022-08-07T13:53:35.944Z,32.87
2022-08-07T13:56:36.342Z,32.80
2022-08-07T13:59:15.744Z,32.40
2022-08-07T14:02:03.563Z,32.49
2022-08-07T14:04:36.713Z,32.49
2022-08-07T14:07:09.721Z,32.56
2022-08-07T14:10:00.883Z,32.67
2022-08-07T14:12:49.329Z,32.84
2022-08-07T14:15:28.636Z,33.08
2022-08-07T14:18:57.100Z,33.02
2022-08-07T14:22:03.093Z,32.78
2022-08-07T14:24:33.513Z,32.43
2022-08-07T14:28:09.446Z,32.02
2022-08-07T14:30:09.587Z,31.99
2022-08-07T14:32:51.278Z,31.64
2022-08-07T14:35:44.852Z,31.78
2022-08-07T14:41:12.463Z,32.01
2022-08-07T14:43:57.743Z,32.21
2022-08-07T14:46:31.078Z,32.16
2022-08-07T14:49:17.242Z,32.13
2022-08-07T14:52:03.730Z,31.98
2022-08-07T14:54:35.815Z,31.62
2022-08-07T14:57:28.838Z,31.61
2022-08-07T15:00:06.645Z,31.67
2022-08-07T15:02:35.213Z,31.81
2022-08-07T15:05:04.795Z,32.05
2022-08-07T15:10:40.602Z,31.61
2022-08-07T15:13:35.966Z,31.70
2022-08-07T15:16:20.162Z,31.91
2022-08-07T15:19:05.620Z,32.09
2022-08-07T15:25:12.790Z,32.66
2022-08-07T15:27:24.993Z,32.96
2022-08-07T15:30:10.334Z,33.14
2022-08-07T15:32:50.675Z,32.76
2022-08-07T15:36:01.826Z,32.69
2022-08-07T15:41:23.357Z,32.64
2022-08-07T15:44:07.031Z,32.26
2022-08-07T15:46:38.507Z,32.37
2022-08-07T15:49:16.283Z,32.14
2022-08-07T15:54:34.125Z,31.80
2022-08-07T15:57:03.127Z,31.67
2022-08-07T15:59:39.045Z,31.78
2022-08-07T16:02:08.499Z,31.77
2022-08-07T16:04:37.939Z,31.77
2022-08-07T16:08:32.211Z,31.77
2022-08-07T16:10:05.778Z,31.71
2022-08-07T16:13:17.969Z,31.60
2022-08-07T16:16:47.899Z,31.54
2022-08-07T16:19:41.802Z,31.30
2022-08-07T16:22:55.692Z,30.98
2022-08-07T16:25:52.513Z,30.88
2022-08-07T16:30:06.405Z,30.90
2022-08-07T16:31:50.199Z,30.96
2022-08-07T16:34:09.984Z,31.11
2022-08-07T16:37:01.720Z,31.10
2022-08-07T16:39:49.289Z,30.95
2022-08-07T16:42:53.273Z,30.88
2022-08-07T16:46:40.621Z,30.75
2022-08-07T16:49:10.405Z,30.65
2022-08-07T16:51:57.512Z,30.65
2022-08-07T16:54:55.618Z,30.49
2022-08-07T16:58:01.843Z,30.38
2022-08-07T17:00:39.199Z,30.28
2022-08-07T17:03:18.659Z,30.30
2022-08-07T17:06:30.300Z,30.19
2022-08-07T17:09:13.941Z,30.15
2022-08-07T17:12:04.017Z,29.76
2022-08-07T17:14:56.380Z,29.90
2022-08-07T17:17:44.313Z,29.86
2022-08-07T17:20:29.927Z,29.80
2022-08-07T17:22:57.542Z,29.71
2022-08-07T17:25:47.653Z,29.57
2022-08-07T17:28:31.203Z,29.55
2022-08-07T17:31:16.061Z,29.42
2022-08-07T17:34:15.188Z,29.41
2022-08-07T17:36:57.634Z,29.23
2022-08-07T17:40:09.065Z,29.21
2022-08-07T17:42:59.292Z,29.19
2022-08-07T17:45:42.225Z,29.24
2022-08-07T17:48:30.823Z,29.23
2022-08-07T17:51:21.614Z,29.17
2022-08-07T17:54:06.571Z,29.18
2022-08-07T17:56:54.465Z,29.20
2022-08-07T17:59:25.956Z,29.18
2022-08-07T18:02:11.393Z,29.24
2022-08-07T18:05:02.327Z,29.09
2022-08-07T18:08:04.801Z,29.09
2022-08-07T18:12:08.420Z,29.16
2022-08-07T18:13:54.023Z,29.18
2022-08-07T18:16:35.001Z,29.18
2022-08-07T18:21:09.541Z,29.09
2022-08-07T18:22:11.420Z,29.12
2022-08-07T18:24:42.045Z,29.04
2022-08-07T18:27:39.086Z,29.01
2022-08-07T18:30:31.169Z,28.92
2022-08-07T18:33:15.455Z,28.84
2022-08-07T18:36:12.731Z,28.76
2022-08-07T18:38:57.914Z,28.70
2022-08-07T18:41:47.339Z,28.74
2022-08-07T18:44:27.309Z,28.66
2022-08-07T18:47:20.955Z,28.61
2022-08-07T18:50:37.778Z,28.55
2022-08-07T18:53:13.165Z,28.34
2022-08-07T18:56:08.712Z,28.33
2022-08-07T18:59:10.517Z,28.19
2022-08-07T19:02:33.947Z,28.10
2022-08-07T19:05:15.823Z,28.10
2022-08-07T19:08:10.863Z,27.79
2022-08-07T19:10:51.404Z,27.62
2022-08-07T19:13:45.112Z,27.61
2022-08-07T19:17:04.397Z,27.56
2022-08-07T19:19:49.326Z,27.44
2022-08-07T19:22:30.749Z,27.43
2022-08-07T19:25:06.551Z,27.10
2022-08-07T19:28:57.062Z,27.18
2022-08-07T19:31:05.189Z,27.14
2022-08-07T19:33:18.852Z,26.77
2022-08-07T19:36:01.779Z,26.68
2022-08-07T19:38:32.283Z,26.82
2022-08-07T19:41:00.640Z,26.91
2022-08-07T19:43:50.005Z,26.87
2022-08-07T19:46:22.451Z,26.59
2022-08-07T19:49:02.659Z,26.52
2022-08-07T19:51:52.251Z,26.36
2022-08-07T19:54:30.946Z,26.30
2022-08-07T19:58:00.721Z,26.14
2022-08-07T19:59:55.904Z,26.14
2022-08-07T20:02:52.211Z,26.00
2022-08-07T20:05:25.327Z,26.08
2022-08-07T20:07:59.492Z,26.05
2022-08-07T20:10:55.116Z,26.28
2022-08-07T20:13:38.492Z,26.25
2022-08-07T20:16:32.180Z,26.06
2022-08-07T20:18:59.262Z,25.96
2022-08-07T20:21:42.144Z,25.76
2022-08-07T20:24:20.599Z,25.75
2022-08-07T20:26:52.289Z,25.52
2022-08-07T20:29:48.031Z,25.36
2022-08-07T20:32:25.526Z,25.49
2022-08-07T20:34:56.107Z,25.51
2022-08-07T20:37:37.069Z,25.51
2022-08-07T20:40:32.319Z,25.41
2022-08-07T20:43:03.347Z,25.41
2022-08-07T20:46:27.061Z,25.34
2022-08-07T20:48:30.571Z,25.32
2022-08-07T20:51:04.056Z,25.24
2022-08-07T20:54:03.222Z,25.21
2022-08-07T20:56:28.926Z,25.14
2022-08-07T20:59:01.500Z,25.06
2022-08-07T21:01:29.545Z,24.95
2022-08-07T21:04:22.755Z,24.92
2022-08-07T21:06:55.291Z,24.76
2022-08-07T21:09:51.636Z,24.70
2022-08-07T21:12:28.916Z,24.64
2022-08-07T21:15:02.484Z,24.48
2022-08-07T21:18:03.695Z,24.44
2022-08-07T21:20:26.896Z,24.38
2022-08-07T21:22:59.124Z,24.36
2022-08-07T21:26:01.489Z,24.30
2022-08-07T21:28:51.744Z,24.22
2022-08-07T21:32:47.368Z,24.19
2022-08-07T21:35:02.378Z,23.93
2022-08-07T21:37:58.289Z,23.78
2022-08-07T21:40:38.130Z,23.60
2022-08-07T21:43:10.773Z,23.51
2022-08-07T21:46:09.664Z,23.45
2022-08-07T21:49:03.313Z,23.44
2022-08-07T21:51:54.526Z,23.37
2022-08-07T21:54:34.426Z,23.40
2022-08-07T21:57:39.416Z,23.39
2022-08-07T22:00:22.809Z,23.54
2022-08-07T22:02:55.749Z,23.50
2022-08-07T22:05:44.264Z,23.43
2022-08-07T22:08:18.906Z,23.36
2022-08-07T22:10:50.982Z,23.33
2022-08-07T22:13:24.190Z,23.32
2022-08-07T22:16:38.900Z,23.17
2022-08-07T22:19:30.028Z,23.28
2022-08-07T22:22:20.803Z,23.24
2022-08-07T22:25:08.667Z,23.17
2022-08-07T22:28:29.634Z,23.12
2022-08-07T22:30:58.570Z,23.06
2022-08-07T22:33:52.478Z,23.05
2022-08-07T22:36:27.266Z,23.06
2022-08-07T22:39:07.459Z,23.06
2022-08-07T22:42:04.095Z,23.01
2022-08-07T22:44:34.489Z,23.00
2022-08-07T22:47:23.136Z,23.02
2022-08-07T22:49:54.748Z,22.96
2022-08-07T22:52:40.005Z,23.01
2022-08-07T22:55:37.133Z,22.82
2022-08-07T22:58:28.168Z,22.73
2022-08-07T23:01:49.812Z,22.67
2022-08-07T23:04:57.874Z,22.64
2022-08-07T23:07:44.806Z,22.69
2022-08-07T23:10:36.412Z,22.55
2022-08-07T23:13:12.079Z,22.55
2022-08-07T23:16:05.495Z,22.52
2022-08-07T23:19:39.021Z,22.46
2022-08-07T23:22:59.222Z,22.37
2022-08-07T23:25:44.231Z,22.26
2022-08-07T23:28:29.096Z,22.17
2022-08-07T23:32:49.325Z,22.06
2022-08-07T23:34:34.806Z,21.94
2022-08-07T23:37:37.387Z,21.91
2022-08-07T23:40:33.257Z,21.88
2022-08-07T23:43:21.003Z,21.90
2022-08-07T23:46:27.169Z,21.84
2022-08-07T23:49:19.498Z,21.78
2022-08-07T23:53:00.300Z,21.67
2022-08-07T23:54:53.097Z,21.67
2022-08-07T23:57:25.280Z,21.76
